sensor_id;sensor_type;location;lat;lon;timestamp;pressure;altitude;pressure_sealevel;temperature;humidity
10135;BME280;5107;48.850;8.924;2023-12-04T00:01:45;96834.16;;;-4.48;85.77
10135;BME280;5107;48.850;8.924;2023-12-04T00:04:10;96829.63;;;-4.43;85.72
10135;BME280;5107;48.850;8.924;2023-12-04T00:06:36;96830.31;;;-4.56;85.15
10135;BME280;5107;48.850;8.924;2023-12-04T00:09:01;96825.88;;;-4.53;85.73
10135;BME280;5107;48.850;8.924;2023-12-04T00:11:26;96816.78;;;-4.60;85.75
10135;BME280;5107;48.850;8.924;2023-12-04T00:13:52;96807.34;;;-4.60;85.56
10135;BME280;5107;48.850;8.924;2023-12-04T00:16:18;96814.38;;;-4.63;86.42
10135;BME280;5107;48.850;8.924;2023-12-04T00:18:43;96808.94;;;-4.57;86.21
10135;BME280;5107;48.850;8.924;2023-12-04T00:21:08;96798.75;;;-4.59;85.83
10135;BME280;5107;48.850;8.924;2023-12-04T00:23:34;96795.53;;;-4.62;86.02
10135;BME280;5107;48.850;8.924;2023-12-04T00:25:59;96799.97;;;-4.66;85.91
10135;BME280;5107;48.850;8.924;2023-12-04T00:28:24;96799.75;;;-4.61;85.91
10135;BME280;5107;48.850;8.924;2023-12-04T00:30:50;96807.75;;;-4.50;85.79
10135;BME280;5107;48.850;8.924;2023-12-04T00:33:15;96802.00;;;-4.55;86.90
10135;BME280;5107;48.850;8.924;2023-12-04T00:35:40;96800.81;;;-4.65;86.77
10135;BME280;5107;48.850;8.924;2023-12-04T00:38:06;96799.06;;;-4.47;85.58
10135;BME280;5107;48.850;8.924;2023-12-04T00:40:31;96787.84;;;-4.62;85.83
10135;BME280;5107;48.850;8.924;2023-12-04T00:42:56;96786.22;;;-4.65;86.20
10135;BME280;5107;48.850;8.924;2023-12-04T00:45:22;96787.28;;;-4.51;84.67
10135;BME280;5107;48.850;8.924;2023-12-04T00:47:47;96785.47;;;-4.49;84.56
10135;BME280;5107;48.850;8.924;2023-12-04T00:50:12;96783.75;;;-4.66;84.40
10135;BME280;5107;48.850;8.924;2023-12-04T00:52:38;96784.38;;;-4.61;85.74
10135;BME280;5107;48.850;8.924;2023-12-04T00:55:03;96775.19;;;-4.84;85.06
10135;BME280;5107;48.850;8.924;2023-12-04T00:57:29;96778.41;;;-4.79;85.25
10135;BME280;5107;48.850;8.924;2023-12-04T00:59:54;96771.97;;;-4.87;85.51
10135;BME280;5107;48.850;8.924;2023-12-04T01:02:19;96774.22;;;-4.81;85.86
10135;BME280;5107;48.850;8.924;2023-12-04T01:04:45;96778.91;;;-4.72;85.32
10135;BME280;5107;48.850;8.924;2023-12-04T01:07:10;96780.13;;;-4.62;84.30
10135;BME280;5107;48.850;8.924;2023-12-04T01:09:38;96780.28;;;-4.65;83.75
10135;BME280;5107;48.850;8.924;2023-12-04T01:12:04;96777.78;;;-4.84;84.32
10135;BME280;5107;48.850;8.924;2023-12-04T01:14:29;96774.53;;;-4.87;85.11
10135;BME280;5107;48.850;8.924;2023-12-04T01:16:55;96763.91;;;-4.80;84.66
10135;BME280;5107;48.850;8.924;2023-12-04T01:19:21;96760.66;;;-4.83;84.99
10135;BME280;5107;48.850;8.924;2023-12-04T01:21:49;96755.00;;;-4.90;85.05
10135;BME280;5107;48.850;8.924;2023-12-04T01:24:15;96754.03;;;-4.87;85.36
10135;BME280;5107;48.850;8.924;2023-12-04T01:26:41;96752.75;;;-4.79;84.88
10135;BME280;5107;48.850;8.924;2023-12-04T01:29:06;96756.41;;;-4.84;84.90
10135;BME280;5107;48.850;8.924;2023-12-04T01:31:32;96741.03;;;-4.84;85.24
10135;BME280;5107;48.850;8.924;2023-12-04T01:33:57;96751.28;;;-4.67;84.41
10135;BME280;5107;48.850;8.924;2023-12-04T01:36:23;96744.22;;;-4.79;84.90
10135;BME280;5107;48.850;8.924;2023-12-04T01:38:48;96747.69;;;-4.80;85.12
10135;BME280;5107;48.850;8.924;2023-12-04T01:41:13;96740.19;;;-4.68;84.83
10135;BME280;5107;48.850;8.924;2023-12-04T01:43:39;96744.22;;;-4.62;84.35
10135;BME280;5107;48.850;8.924;2023-12-04T01:46:04;96737.47;;;-4.65;84.64
10135;BME280;5107;48.850;8.924;2023-12-04T01:48:31;96737.84;;;-4.38;83.21
10135;BME280;5107;48.850;8.924;2023-12-04T01:50:57;96733.72;;;-4.25;82.45
10135;BME280;5107;48.850;8.924;2023-12-04T01:53:24;96730.69;;;-4.15;82.17
10135;BME280;5107;48.850;8.924;2023-12-04T01:55:49;96727.28;;;-4.16;82.23
10135;BME280;5107;48.850;8.924;2023-12-04T01:58:16;96724.56;;;-4.13;83.09
10135;BME280;5107;48.850;8.924;2023-12-04T02:00:42;96732.84;;;-3.92;82.42
10135;BME280;5107;48.850;8.924;2023-12-04T02:03:08;96723.56;;;-4.10;83.62
10135;BME280;5107;48.850;8.924;2023-12-04T02:05:34;96723.94;;;-4.18;83.21
10135;BME280;5107;48.850;8.924;2023-12-04T02:08:00;96717.66;;;-4.28;84.09
10135;BME280;5107;48.850;8.924;2023-12-04T02:10:26;96714.88;;;-4.41;84.38
10135;BME280;5107;48.850;8.924;2023-12-04T02:12:51;96716.53;;;-4.40;85.06
10135;BME280;5107;48.850;8.924;2023-12-04T02:15:16;96718.91;;;-4.52;84.49
10135;BME280;5107;48.850;8.924;2023-12-04T02:17:45;96712.94;;;-4.53;85.39
10135;BME280;5107;48.850;8.924;2023-12-04T02:20:14;96723.50;;;-4.59;85.34
10135;BME280;5107;48.850;8.924;2023-12-04T02:22:40;96720.78;;;-4.56;85.06
10135;BME280;5107;48.850;8.924;2023-12-04T02:25:06;96721.84;;;-4.60;85.23
10135;BME280;5107;48.850;8.924;2023-12-04T02:27:48;96713.03;;;-4.72;85.42
10135;BME280;5107;48.850;8.924;2023-12-04T02:30:17;96716.59;;;-4.74;85.40
10135;BME280;5107;48.850;8.924;2023-12-04T02:32:45;96706.69;;;-4.65;84.66
10135;BME280;5107;48.850;8.924;2023-12-04T02:35:11;96706.94;;;-4.69;83.81
10135;BME280;5107;48.850;8.924;2023-12-04T02:37:40;96701.56;;;-4.65;83.46
10135;BME280;5107;48.850;8.924;2023-12-04T02:40:06;96697.25;;;-4.64;83.01
10135;BME280;5107;48.850;8.924;2023-12-04T02:42:32;96691.75;;;-4.74;83.18
10135;BME280;5107;48.850;8.924;2023-12-04T02:44:57;96690.84;;;-4.73;82.93
10135;BME280;5107;48.850;8.924;2023-12-04T02:47:23;96687.72;;;-4.78;83.02
10135;BME280;5107;48.850;8.924;2023-12-04T02:49:48;96684.06;;;-4.74;83.12
10135;BME280;5107;48.850;8.924;2023-12-04T02:52:13;96682.41;;;-4.75;83.17
10135;BME280;5107;48.850;8.924;2023-12-04T02:54:39;96675.84;;;-4.80;83.55
10135;BME280;5107;48.850;8.924;2023-12-04T02:57:04;96667.31;;;-4.81;83.36
10135;BME280;5107;48.850;8.924;2023-12-04T02:59:29;96662.44;;;-4.85;83.39
10135;BME280;5107;48.850;8.924;2023-12-04T03:01:55;96653.09;;;-4.86;83.68
10135;BME280;5107;48.850;8.924;2023-12-04T03:04:20;96656.19;;;-4.97;83.55
10135;BME280;5107;48.850;8.924;2023-12-04T03:06:46;96644.25;;;-4.98;83.87
10135;BME280;5107;48.850;8.924;2023-12-04T03:09:11;96648.88;;;-5.05;83.98
10135;BME280;5107;48.850;8.924;2023-12-04T03:11:40;96646.69;;;-4.95;83.82
10135;BME280;5107;48.850;8.924;2023-12-04T03:14:06;96641.63;;;-4.97;83.46
10135;BME280;5107;48.850;8.924;2023-12-04T03:16:31;96624.78;;;-4.85;83.23
10135;BME280;5107;48.850;8.924;2023-12-04T03:18:56;96633.06;;;-4.80;82.84
10135;BME280;5107;48.850;8.924;2023-12-04T03:21:22;96629.22;;;-4.71;82.64
10135;BME280;5107;48.850;8.924;2023-12-04T03:23:47;96624.09;;;-4.71;82.41
10135;BME280;5107;48.850;8.924;2023-12-04T03:26:12;96617.13;;;-4.69;82.05
10135;BME280;5107;48.850;8.924;2023-12-04T03:28:38;96605.78;;;-4.65;81.66
10135;BME280;5107;48.850;8.924;2023-12-04T03:31:04;96608.75;;;-4.73;81.58
10135;BME280;5107;48.850;8.924;2023-12-04T03:33:29;96599.19;;;-4.69;82.53
10135;BME280;5107;48.850;8.924;2023-12-04T03:35:55;96605.88;;;-4.67;82.28
10135;BME280;5107;48.850;8.924;2023-12-04T03:38:20;96597.09;;;-4.78;82.46
10135;BME280;5107;48.850;8.924;2023-12-04T03:40:45;96592.38;;;-4.70;82.75
10135;BME280;5107;48.850;8.924;2023-12-04T03:43:10;96595.88;;;-4.71;82.37
10135;BME280;5107;48.850;8.924;2023-12-04T03:45:36;96590.56;;;-4.68;82.56
10135;BME280;5107;48.850;8.924;2023-12-04T03:48:01;96595.47;;;-4.48;82.12
10135;BME280;5107;48.850;8.924;2023-12-04T03:50:29;96591.25;;;-4.49;80.82
10135;BME280;5107;48.850;8.924;2023-12-04T03:52:55;96591.50;;;-4.38;81.44
10135;BME280;5107;48.850;8.924;2023-12-04T03:55:20;96590.91;;;-4.43;81.19
10135;BME280;5107;48.850;8.924;2023-12-04T03:57:45;96593.91;;;-4.35;81.25
10135;BME280;5107;48.850;8.924;2023-12-04T04:00:11;96589.03;;;-4.39;81.62
10135;BME280;5107;48.850;8.924;2023-12-04T04:02:39;96585.56;;;-4.38;81.11
10135;BME280;5107;48.850;8.924;2023-12-04T04:05:04;96586.22;;;-4.19;80.72
10135;BME280;5107;48.850;8.924;2023-12-04T04:07:30;96580.06;;;-4.16;80.73
10135;BME280;5107;48.850;8.924;2023-12-04T04:09:56;96575.59;;;-3.97;80.73
10135;BME280;5107;48.850;8.924;2023-12-04T04:12:21;96574.00;;;-3.84;80.72
10135;BME280;5107;48.850;8.924;2023-12-04T04:14:46;96576.78;;;-3.73;79.34
10135;BME280;5107;48.850;8.924;2023-12-04T04:17:12;96569.47;;;-3.65;78.74
10135;BME280;5107;48.850;8.924;2023-12-04T04:19:37;96569.06;;;-3.43;77.73
10135;BME280;5107;48.850;8.924;2023-12-04T04:22:02;96567.78;;;-3.50;77.84
10135;BME280;5107;48.850;8.924;2023-12-04T04:24:29;96570.72;;;-3.42;78.66
10135;BME280;5107;48.850;8.924;2023-12-04T04:26:54;96572.34;;;-3.55;79.05
10135;BME280;5107;48.850;8.924;2023-12-04T04:29:20;96576.59;;;-3.54;78.69
10135;BME280;5107;48.850;8.924;2023-12-04T04:31:45;96572.78;;;-3.63;78.63
10135;BME280;5107;48.850;8.924;2023-12-04T04:34:10;96566.88;;;-3.79;79.97
10135;BME280;5107;48.850;8.924;2023-12-04T04:36:36;96569.53;;;-3.80;80.17
10135;BME280;5107;48.850;8.924;2023-12-04T04:39:01;96568.66;;;-3.65;80.59
10135;BME280;5107;48.850;8.924;2023-12-04T04:41:27;96559.97;;;-3.49;80.20
10135;BME280;5107;48.850;8.924;2023-12-04T04:43:52;96556.53;;;-3.63;78.89
10135;BME280;5107;48.850;8.924;2023-12-04T04:46:21;96556.53;;;-3.63;78.57
10135;BME280;5107;48.850;8.924;2023-12-04T04:48:46;96551.63;;;-3.82;79.84
10135;BME280;5107;48.850;8.924;2023-12-04T04:51:12;96543.50;;;-3.90;80.76
10135;BME280;5107;48.850;8.924;2023-12-04T04:53:38;96546.81;;;-3.88;80.85
10135;BME280;5107;48.850;8.924;2023-12-04T04:56:04;96546.31;;;-3.79;80.69
10135;BME280;5107;48.850;8.924;2023-12-04T04:58:29;96539.94;;;-3.88;80.32
10135;BME280;5107;48.850;8.924;2023-12-04T05:00:55;96539.88;;;-3.86;80.84
10135;BME280;5107;48.850;8.924;2023-12-04T05:03:20;96535.31;;;-3.67;79.47
10135;BME280;5107;48.850;8.924;2023-12-04T05:05:45;96532.94;;;-3.70;79.81
10135;BME280;5107;48.850;8.924;2023-12-04T05:08:11;96530.53;;;-3.73;79.46
10135;BME280;5107;48.850;8.924;2023-12-04T05:10:38;96525.47;;;-3.74;79.13
10135;BME280;5107;48.850;8.924;2023-12-04T05:13:04;96513.06;;;-3.82;79.52
10135;BME280;5107;48.850;8.924;2023-12-04T05:15:29;96510.50;;;-3.82;79.48
10135;BME280;5107;48.850;8.924;2023-12-04T05:17:54;96503.16;;;-3.88;79.64
10135;BME280;5107;48.850;8.924;2023-12-04T05:20:20;96499.84;;;-3.90;80.80
10135;BME280;5107;48.850;8.924;2023-12-04T05:22:45;96494.88;;;-3.93;80.39
10135;BME280;5107;48.850;8.924;2023-12-04T05:25:10;96500.00;;;-3.93;80.17
10135;BME280;5107;48.850;8.924;2023-12-04T05:27:36;96499.22;;;-4.09;80.40
10135;BME280;5107;48.850;8.924;2023-12-04T05:30:01;96498.56;;;-4.13;81.96
10135;BME280;5107;48.850;8.924;2023-12-04T05:32:27;96492.34;;;-4.09;81.85
10135;BME280;5107;48.850;8.924;2023-12-04T05:34:52;96494.00;;;-4.08;81.96
10135;BME280;5107;48.850;8.924;2023-12-04T05:37:18;96497.88;;;-4.01;81.78
10135;BME280;5107;48.850;8.924;2023-12-04T05:39:43;96498.44;;;-3.96;81.65
10135;BME280;5107;48.850;8.924;2023-12-04T05:42:08;96502.19;;;-4.01;81.69
10135;BME280;5107;48.850;8.924;2023-12-04T05:44:34;96505.69;;;-4.02;82.57
10135;BME280;5107;48.850;8.924;2023-12-04T05:47:00;96503.84;;;-4.00;81.96
10135;BME280;5107;48.850;8.924;2023-12-04T05:49:25;96498.53;;;-3.97;81.52
10135;BME280;5107;48.850;8.924;2023-12-04T05:51:51;96494.88;;;-3.93;81.38
10135;BME280;5107;48.850;8.924;2023-12-04T05:54:16;96493.66;;;-4.02;81.58
10135;BME280;5107;48.850;8.924;2023-12-04T05:56:41;96488.19;;;-3.96;81.16
10135;BME280;5107;48.850;8.924;2023-12-04T05:59:08;96489.56;;;-3.90;81.53
10135;BME280;5107;48.850;8.924;2023-12-04T06:01:33;96499.09;;;-3.92;81.26
10135;BME280;5107;48.850;8.924;2023-12-04T06:03:58;96497.72;;;-3.98;82.08
10135;BME280;5107;48.850;8.924;2023-12-04T06:06:24;96494.34;;;-3.84;83.92
10135;BME280;5107;48.850;8.924;2023-12-04T06:08:49;96510.50;;;-3.82;83.19
10135;BME280;5107;48.850;8.924;2023-12-04T06:11:14;96504.66;;;-4.00;83.96
10135;BME280;5107;48.850;8.924;2023-12-04T06:13:40;96504.50;;;-3.97;83.69
10135;BME280;5107;48.850;8.924;2023-12-04T06:16:05;96511.78;;;-3.89;82.80
10135;BME280;5107;48.850;8.924;2023-12-04T06:18:31;96506.34;;;-3.85;81.83
10135;BME280;5107;48.850;8.924;2023-12-04T06:20:56;96503.78;;;-3.85;82.08
10135;BME280;5107;48.850;8.924;2023-12-04T06:23:22;96494.09;;;-3.79;81.52
10135;BME280;5107;48.850;8.924;2023-12-04T06:25:47;96493.91;;;-3.76;81.09
10135;BME280;5107;48.850;8.924;2023-12-04T06:28:13;96489.94;;;-3.82;80.71
10135;BME280;5107;48.850;8.924;2023-12-04T06:30:38;96488.66;;;-3.89;80.89
10135;BME280;5107;48.850;8.924;2023-12-04T06:33:04;96480.00;;;-4.02;82.01
10135;BME280;5107;48.850;8.924;2023-12-04T06:35:30;96479.06;;;-4.01;81.73
10135;BME280;5107;48.850;8.924;2023-12-04T06:38:07;96480.00;;;-4.02;82.29
10135;BME280;5107;48.850;8.924;2023-12-04T06:40:36;96488.38;;;-4.14;83.20
10135;BME280;5107;48.850;8.924;2023-12-04T06:43:02;96475.06;;;-3.61;90.72
10135;BME280;5107;48.850;8.924;2023-12-04T06:45:27;96474.88;;;-3.16;92.43
10135;BME280;5107;48.850;8.924;2023-12-04T06:47:53;96469.75;;;-3.44;85.91
10135;BME280;5107;48.850;8.924;2023-12-04T06:50:28;96469.00;;;-3.60;83.61
10135;BME280;5107;48.850;8.924;2023-12-04T06:52:53;96460.09;;;-3.69;82.50
10135;BME280;5107;48.850;8.924;2023-12-04T06:55:19;96456.25;;;-3.92;81.83
10135;BME280;5107;48.850;8.924;2023-12-04T06:57:44;96454.47;;;-4.05;82.72
10135;BME280;5107;48.850;8.924;2023-12-04T07:00:10;96451.53;;;-4.13;82.78
10135;BME280;5107;48.850;8.924;2023-12-04T07:02:39;96447.97;;;-4.11;82.72
10135;BME280;5107;48.850;8.924;2023-12-04T07:05:05;96449.31;;;-4.19;83.33
10135;BME280;5107;48.850;8.924;2023-12-04T07:07:31;96444.19;;;-4.19;83.21
10135;BME280;5107;48.850;8.924;2023-12-04T07:09:57;96444.41;;;-4.24;84.24
10135;BME280;5107;48.850;8.924;2023-12-04T07:12:22;96443.19;;;-4.33;83.89
10135;BME280;5107;48.850;8.924;2023-12-04T07:14:47;96442.38;;;-4.33;83.96
10135;BME280;5107;48.850;8.924;2023-12-04T07:17:12;96443.94;;;-4.31;84.71
10135;BME280;5107;48.850;8.924;2023-12-04T07:19:40;96431.59;;;-4.24;84.65
10135;BME280;5107;48.850;8.924;2023-12-04T07:22:06;96442.53;;;-4.21;84.28
10135;BME280;5107;48.850;8.924;2023-12-04T07:24:31;96429.31;;;-4.14;84.50
10135;BME280;5107;48.850;8.924;2023-12-04T07:26:57;96424.56;;;-4.06;84.32
10135;BME280;5107;48.850;8.924;2023-12-04T07:29:22;96420.00;;;-4.01;83.89
10135;BME280;5107;48.850;8.924;2023-12-04T07:31:51;96424.97;;;-3.98;84.01
10135;BME280;5107;48.850;8.924;2023-12-04T07:34:16;96426.25;;;-3.91;83.58
10135;BME280;5107;48.850;8.924;2023-12-04T07:36:41;96426.84;;;-3.86;83.95
10135;BME280;5107;48.850;8.924;2023-12-04T07:39:09;96424.34;;;-3.88;83.53
10135;BME280;5107;48.850;8.924;2023-12-04T07:41:34;96427.28;;;-3.79;83.44
10135;BME280;5107;48.850;8.924;2023-12-04T07:44:00;96420.97;;;-3.74;83.66
10135;BME280;5107;48.850;8.924;2023-12-04T07:46:25;96417.41;;;-3.57;82.43
10135;BME280;5107;48.850;8.924;2023-12-04T07:48:50;96415.28;;;-3.65;82.66
10135;BME280;5107;48.850;8.924;2023-12-04T07:51:16;96408.59;;;-3.53;82.42
10135;BME280;5107;48.850;8.924;2023-12-04T07:53:42;96413.19;;;-3.44;83.71
10135;BME280;5107;48.850;8.924;2023-12-04T07:56:07;96411.41;;;-3.15;83.00
10135;BME280;5107;48.850;8.924;2023-12-04T07:58:33;96426.38;;;-3.08;81.79
10135;BME280;5107;48.850;8.924;2023-12-04T08:00:59;96420.22;;;-3.05;80.78
10135;BME280;5107;48.850;8.924;2023-12-04T08:03:24;96416.31;;;-2.84;79.41
10135;BME280;5107;48.850;8.924;2023-12-04T08:05:51;96420.31;;;-2.65;79.66
10135;BME280;5107;48.850;8.924;2023-12-04T08:08:16;96434.56;;;-2.60;79.24
10135;BME280;5107;48.850;8.924;2023-12-04T08:10:42;96428.09;;;-2.53;80.00
10135;BME280;5107;48.850;8.924;2023-12-04T08:13:07;96419.94;;;-2.59;80.32
10135;BME280;5107;48.850;8.924;2023-12-04T08:15:35;96405.84;;;-2.54;80.08
10135;BME280;5107;48.850;8.924;2023-12-04T08:18:00;96396.28;;;-2.52;80.20
10135;BME280;5107;48.850;8.924;2023-12-04T08:20:26;96392.06;;;-2.40;79.91
10135;BME280;5107;48.850;8.924;2023-12-04T08:22:54;96384.25;;;-2.39;79.74
10135;BME280;5107;48.850;8.924;2023-12-04T08:25:20;96363.88;;;-2.29;79.40
10135;BME280;5107;48.850;8.924;2023-12-04T08:27:45;96377.28;;;-2.24;79.01
10135;BME280;5107;48.850;8.924;2023-12-04T08:30:11;96377.09;;;-2.21;78.54
10135;BME280;5107;48.850;8.924;2023-12-04T08:32:36;96370.31;;;-1.97;78.51
10135;BME280;5107;48.850;8.924;2023-12-04T08:35:02;96369.28;;;-1.81;76.44
10135;BME280;5107;48.850;8.924;2023-12-04T08:37:29;96374.25;;;-1.78;76.72
10135;BME280;5107;48.850;8.924;2023-12-04T08:39:54;96367.94;;;-1.74;76.11
10135;BME280;5107;48.850;8.924;2023-12-04T08:42:19;96360.66;;;-1.68;76.58
10135;BME280;5107;48.850;8.924;2023-12-04T08:44:45;96355.91;;;-1.61;76.77
10135;BME280;5107;48.850;8.924;2023-12-04T08:47:12;96358.16;;;-1.57;76.04
10135;BME280;5107;48.850;8.924;2023-12-04T08:49:39;96370.63;;;-1.50;75.59
10135;BME280;5107;48.850;8.924;2023-12-04T08:52:06;96380.75;;;-1.60;75.71
10135;BME280;5107;48.850;8.924;2023-12-04T08:54:31;96378.56;;;-1.66;76.06
10135;BME280;5107;48.850;8.924;2023-12-04T08:56:57;96379.63;;;-1.69;76.85
10135;BME280;5107;48.850;8.924;2023-12-04T08:59:22;96383.94;;;-1.69;77.16
10135;BME280;5107;48.850;8.924;2023-12-04T09:01:47;96380.63;;;-1.59;77.60
10135;BME280;5107;48.850;8.924;2023-12-04T09:04:13;96376.00;;;-1.54;76.58
10135;BME280;5107;48.850;8.924;2023-12-04T09:06:38;96372.78;;;-1.57;76.80
10135;BME280;5107;48.850;8.924;2023-12-04T09:09:04;96376.59;;;-1.50;77.39
10135;BME280;5107;48.850;8.924;2023-12-04T09:11:29;96375.66;;;-0.87;86.04
10135;BME280;5107;48.850;8.924;2023-12-04T09:13:54;96375.75;;;-0.89;77.35
10135;BME280;5107;48.850;8.924;2023-12-04T09:16:20;96374.22;;;-0.91;76.87
10135;BME280;5107;48.850;8.924;2023-12-04T09:18:45;96375.38;;;-0.95;77.25
10135;BME280;5107;48.850;8.924;2023-12-04T09:21:12;96375.88;;;-0.90;75.83
10135;BME280;5107;48.850;8.924;2023-12-04T09:23:37;96380.38;;;-0.81;76.18
10135;BME280;5107;48.850;8.924;2023-12-04T09:26:03;96376.03;;;-0.81;76.68
10135;BME280;5107;48.850;8.924;2023-12-04T09:28:28;96384.00;;;-0.84;75.99
10135;BME280;5107;48.850;8.924;2023-12-04T09:30:54;96384.91;;;-0.48;81.33
10135;BME280;5107;48.850;8.924;2023-12-04T09:33:19;96380.22;;;-0.67;76.98
10135;BME280;5107;48.850;8.924;2023-12-04T09:35:44;96385.06;;;-0.99;75.91
10135;BME280;5107;48.850;8.924;2023-12-04T09:38:10;96388.13;;;-1.18;76.87
10135;BME280;5107;48.850;8.924;2023-12-04T09:40:35;96392.06;;;-1.75;78.90
10135;BME280;5107;48.850;8.924;2023-12-04T09:43:05;96376.09;;;-1.80;79.79
10135;BME280;5107;48.850;8.924;2023-12-04T09:45:32;96374.75;;;-1.73;80.37
10135;BME280;5107;48.850;8.924;2023-12-04T09:47:58;96372.69;;;-1.56;81.69
10135;BME280;5107;48.850;8.924;2023-12-04T09:50:23;96368.66;;;-1.47;80.34
10135;BME280;5107;48.850;8.924;2023-12-04T09:52:49;96361.66;;;-1.45;79.51
10135;BME280;5107;48.850;8.924;2023-12-04T09:55:18;96339.78;;;-1.52;79.69
10135;BME280;5107;48.850;8.924;2023-12-04T09:57:45;96352.25;;;-1.59;79.84
10135;BME280;5107;48.850;8.924;2023-12-04T10:00:13;96349.38;;;-1.54;80.26
10135;BME280;5107;48.850;8.924;2023-12-04T10:02:40;96336.38;;;-1.52;80.00
10135;BME280;5107;48.850;8.924;2023-12-04T10:05:06;96348.97;;;-1.48;79.86
10135;BME280;5107;48.850;8.924;2023-12-04T10:07:32;96348.47;;;-1.53;80.30
10135;BME280;5107;48.850;8.924;2023-12-04T10:09:57;96345.34;;;-1.45;81.08
10135;BME280;5107;48.850;8.924;2023-12-04T10:12:23;96344.44;;;-1.44;80.81
10135;BME280;5107;48.850;8.924;2023-12-04T10:17:33;96340.06;;;-1.31;79.72
10135;BME280;5107;48.850;8.924;2023-12-04T10:20:08;96348.47;;;-1.17;79.13
10135;BME280;5107;48.850;8.924;2023-12-04T10:25:21;96344.88;;;-1.14;79.22
10135;BME280;5107;48.850;8.924;2023-12-04T10:27:47;96337.66;;;-1.22;79.43
10135;BME280;5107;48.850;8.924;2023-12-04T10:30:29;96323.84;;;-1.21;79.72
10135;BME280;5107;48.850;8.924;2023-12-04T10:33:02;96326.31;;;-1.19;79.63
10135;BME280;5107;48.850;8.924;2023-12-04T10:35:32;96313.31;;;-1.18;79.82
10135;BME280;5107;48.850;8.924;2023-12-04T10:38:02;96314.28;;;-1.07;80.28
10135;BME280;5107;48.850;8.924;2023-12-04T10:40:32;96314.06;;;-1.04;79.16
10135;BME280;5107;48.850;8.924;2023-12-04T10:45:38;96299.88;;;-0.86;79.29
10135;BME280;5107;48.850;8.924;2023-12-04T10:48:05;96295.44;;;-0.73;79.33
10135;BME280;5107;48.850;8.924;2023-12-04T10:50:33;96296.78;;;-0.67;78.71
10135;BME280;5107;48.850;8.924;2023-12-04T10:53:01;96277.69;;;-0.54;78.67
10135;BME280;5107;48.850;8.924;2023-12-04T10:55:29;96272.78;;;-0.46;78.20
10135;BME280;5107;48.850;8.924;2023-12-04T10:57:55;96270.22;;;-0.34;78.10
10135;BME280;5107;48.850;8.924;2023-12-04T11:00:21;96259.19;;;-0.14;77.86
10135;BME280;5107;48.850;8.924;2023-12-04T11:02:48;96248.78;;;-0.02;77.94
10135;BME280;5107;48.850;8.924;2023-12-04T11:05:16;96244.41;;;0.10;76.61
10135;BME280;5107;48.850;8.924;2023-12-04T11:08:09;96246.56;;;0.16;76.57
10135;BME280;5107;48.850;8.924;2023-12-04T11:10:42;96254.78;;;0.21;77.90
10135;BME280;5107;48.850;8.924;2023-12-04T11:13:14;96251.25;;;0.22;78.08
10135;BME280;5107;48.850;8.924;2023-12-04T11:15:42;96246.19;;;0.32;77.93
10135;BME280;5107;48.850;8.924;2023-12-04T11:18:13;96250.06;;;0.37;79.66
10135;BME280;5107;48.850;8.924;2023-12-04T11:20:44;96246.53;;;0.38;79.91
10135;BME280;5107;48.850;8.924;2023-12-04T11:23:13;96258.97;;;0.45;80.45
10135;BME280;5107;48.850;8.924;2023-12-04T11:25:39;96254.75;;;0.55;80.83
10135;BME280;5107;48.850;8.924;2023-12-04T11:28:05;96252.38;;;0.63;81.90
10135;BME280;5107;48.850;8.924;2023-12-04T11:30:31;96253.09;;;0.65;82.20
10135;BME280;5107;48.850;8.924;2023-12-04T11:32:57;96242.13;;;0.61;82.61
10135;BME280;5107;48.850;8.924;2023-12-04T11:35:25;96237.28;;;0.68;83.49
10135;BME280;5107;48.850;8.924;2023-12-04T11:37:52;96229.31;;;0.71;83.57
10135;BME280;5107;48.850;8.924;2023-12-04T11:40:17;96226.81;;;0.69;83.32
10135;BME280;5107;48.850;8.924;2023-12-04T11:42:43;96215.41;;;0.83;83.67
10135;BME280;5107;48.850;8.924;2023-12-04T11:45:09;96215.22;;;0.96;83.42
10135;BME280;5107;48.850;8.924;2023-12-04T11:47:57;96196.66;;;1.11;84.12
10135;BME280;5107;48.850;8.924;2023-12-04T11:50:26;96180.44;;;1.30;83.47
10135;BME280;5107;48.850;8.924;2023-12-04T11:52:52;96189.53;;;1.45;82.38
10135;BME280;5107;48.850;8.924;2023-12-04T11:55:21;96174.81;;;1.46;82.49
10135;BME280;5107;48.850;8.924;2023-12-04T11:57:49;96176.06;;;1.51;83.01
10135;BME280;5107;48.850;8.924;2023-12-04T12:00:22;96171.53;;;1.65;82.83
10135;BME280;5107;48.850;8.924;2023-12-04T12:05:20;96167.16;;;1.65;81.34
10135;BME280;5107;48.850;8.924;2023-12-04T12:07:46;96169.31;;;1.60;80.58
10135;BME280;5107;48.850;8.924;2023-12-04T12:10:12;96160.91;;;1.47;81.19
10135;BME280;5107;48.850;8.924;2023-12-04T12:12:39;96148.91;;;1.46;81.85
10135;BME280;5107;48.850;8.924;2023-12-04T12:15:08;96146.31;;;1.46;81.43
10135;BME280;5107;48.850;8.924;2023-12-04T12:17:34;96145.78;;;1.52;82.34
10135;BME280;5107;48.850;8.924;2023-12-04T12:19:59;96143.06;;;1.53;81.98
10135;BME280;5107;48.850;8.924;2023-12-04T12:22:24;96130.69;;;1.57;81.30
10135;BME280;5107;48.850;8.924;2023-12-04T12:24:50;96128.22;;;1.56;80.85
10135;BME280;5107;48.850;8.924;2023-12-04T12:27:18;96135.44;;;1.52;81.09
10135;BME280;5107;48.850;8.924;2023-12-04T12:29:44;96120.31;;;1.57;80.95
10135;BME280;5107;48.850;8.924;2023-12-04T12:32:10;96130.00;;;1.55;80.74
10135;BME280;5107;48.850;8.924;2023-12-04T12:34:35;96123.88;;;1.56;81.44
10135;BME280;5107;48.850;8.924;2023-12-04T12:37:02;96117.84;;;1.56;82.14
10135;BME280;5107;48.850;8.924;2023-12-04T12:39:29;96111.59;;;1.58;81.97
10135;BME280;5107;48.850;8.924;2023-12-04T12:41:55;96108.84;;;1.50;82.57
10135;BME280;5107;48.850;8.924;2023-12-04T12:44:20;96102.38;;;1.44;82.92
10135;BME280;5107;48.850;8.924;2023-12-04T12:46:50;96097.97;;;1.35;82.97
10135;BME280;5107;48.850;8.924;2023-12-04T12:49:19;96099.38;;;1.39;84.01
10135;BME280;5107;48.850;8.924;2023-12-04T12:51:46;96103.31;;;1.43;84.08
10135;BME280;5107;48.850;8.924;2023-12-04T12:54:11;96088.66;;;1.53;83.61
10135;BME280;5107;48.850;8.924;2023-12-04T12:56:39;96090.41;;;1.53;84.06
10135;BME280;5107;48.850;8.924;2023-12-04T12:59:05;96089.94;;;1.69;83.43
10135;BME280;5107;48.850;8.924;2023-12-04T13:01:32;96083.69;;;1.71;84.07
10135;BME280;5107;48.850;8.924;2023-12-04T13:03:57;96084.63;;;1.70;84.09
10135;BME280;5107;48.850;8.924;2023-12-04T13:06:23;96075.06;;;1.71;84.72
10135;BME280;5107;48.850;8.924;2023-12-04T13:08:49;96065.53;;;1.71;84.82
10135;BME280;5107;48.850;8.924;2023-12-04T13:11:14;96060.63;;;1.78;84.98
10135;BME280;5107;48.850;8.924;2023-12-04T13:13:39;96046.59;;;1.80;84.53
10135;BME280;5107;48.850;8.924;2023-12-04T13:16:05;96051.38;;;1.85;84.54
10135;BME280;5107;48.850;8.924;2023-12-04T13:18:31;96053.53;;;1.80;84.10